Terminal Aerodrome Forecast
Issued by NWS

Home | Current Version | Previous Version | Text Only | Print | Product List | Glossary On
Versions: 1 2 3 4 5 6 7 8 9 10 11 12 13 14 15 16 17 18 19 20 21 22 23 24 25 26 27 28 29 30 31 32 33 34 35 36 37 38 39 40 41 42 43 44 45 46 47
000
FTUS45 KGJT 181752 CCA
TAFRIL
TAF COR
KRIL 181752Z 1818/1918 29005KT P6SM FEW005 BKN013 OVC060
      TEMPO 1818/1820 5SM BR BKN009 OVC020
     FM182000 27004KT P6SM BKN017 OVC028
     FM190400 19004KT 4SM BR OVC020=

USA.gov is the U.S. government's official web portal to all federal, state and local government web resources and services.